createdAt,value
2018-02-21T00:00:26.438Z,0
2018-02-21T00:01:36.582Z,0
2018-02-21T00:02:46.718Z,0
2018-02-21T00:03:56.898Z,0
2018-02-21T00:05:07.036Z,0
2018-02-21T00:06:16.927Z,0
2018-02-21T00:07:26.868Z,0
2018-02-21T00:08:36.380Z,0
2018-02-21T00:09:46.498Z,0
2018-02-21T00:10:56.705Z,0
2018-02-21T00:12:06.620Z,0
2018-02-21T00:13:16.258Z,0
2018-02-21T00:14:26.416Z,0
2018-02-21T00:15:36.622Z,0
2018-02-21T00:16:46.562Z,0
2018-02-21T00:17:56.700Z,0
2018-02-21T00:19:06.812Z,0
2018-02-21T00:20:16.465Z,0
2018-02-21T00:21:26.321Z,0
2018-02-21T00:22:36.194Z,0
2018-02-21T00:23:46.230Z,0
2018-02-21T00:24:56.115Z,0
2018-02-21T00:26:06.280Z,0
2018-02-21T00:27:16.389Z,0
2018-02-21T00:28:26.578Z,0
2018-02-21T00:29:36.709Z,0
2018-02-21T00:30:46.953Z,0
2018-02-21T00:31:57.208Z,0
2018-02-21T00:33:07.370Z,0
2018-02-21T00:34:17.585Z,0
2018-02-21T00:35:27.497Z,0
2018-02-21T00:36:37.386Z,0
2018-02-21T00:37:48.272Z,0
2018-02-21T00:38:58.474Z,0
2018-02-21T00:40:08.731Z,0
2018-02-21T00:41:18.947Z,0
2018-02-21T00:42:28.602Z,0
2018-02-21T00:43:38.705Z,0
2018-02-21T00:44:48.860Z,0
2018-02-21T00:45:59.006Z,0
2018-02-21T00:47:08.556Z,0
2018-02-21T00:48:18.435Z,0
2018-02-21T00:49:28.606Z,0
2018-02-21T00:50:38.796Z,0
2018-02-21T00:51:48.628Z,0
2018-02-21T00:52:58.782Z,0
2018-02-21T00:54:08.329Z,0
2018-02-21T00:55:18.688Z,0
2018-02-21T00:56:28.631Z,0
2018-02-21T00:57:38.754Z,0
2018-02-21T00:58:48.901Z,0
2018-02-21T00:59:58.750Z,0
2018-02-21T01:01:08.922Z,0
2018-02-21T01:02:19.088Z,0
2018-02-21T01:03:29.271Z,0
2018-02-21T01:04:39.191Z,0
2018-02-21T01:05:49.038Z,0
2018-02-21T01:06:59.176Z,0
2018-02-21T01:08:09.308Z,0
2018-02-21T01:09:19.481Z,0
2018-02-21T01:10:29.604Z,0
2018-02-21T01:11:39.758Z,0
2018-02-21T01:12:49.621Z,0
2018-02-21T01:13:59.497Z,0
2018-02-21T01:15:09.639Z,0
2018-02-21T01:16:19.506Z,0
2018-02-21T01:17:29.610Z,0
2018-02-21T01:18:39.751Z,0
2018-02-21T01:19:49.262Z,0
2018-02-21T01:20:59.664Z,0
2018-02-21T01:22:09.584Z,0
2018-02-21T01:23:19.191Z,0
2018-02-21T01:24:29.331Z,0
2018-02-21T01:25:39.528Z,0
2018-02-21T01:26:49.204Z,0
2018-02-21T01:27:59.317Z,0
2018-02-21T01:29:09.417Z,0
2018-02-21T01:30:19.528Z,0
2018-02-21T01:31:29.660Z,0
2018-02-21T01:32:39.822Z,0
2018-02-21T01:33:49.589Z,0
2018-02-21T01:34:59.703Z,0
2018-02-21T01:36:09.852Z,0
2018-02-21T01:37:19.976Z,0
2018-02-21T01:38:30.329Z,0
2018-02-21T01:39:40.430Z,0
2018-02-21T01:40:50.581Z,0
2018-02-21T01:42:00.720Z,0
2018-02-21T01:43:10.845Z,0
2018-02-21T01:44:21.198Z,0
2018-02-21T01:45:31.114Z,0
2018-02-21T01:46:41.223Z,0
2018-02-21T01:47:51.354Z,0
2018-02-21T01:49:01.104Z,0
2018-02-21T01:50:11.334Z,0
2018-02-21T01:51:21.573Z,0
2018-02-21T01:52:31.067Z,0
2018-02-21T01:53:41.479Z,0
2018-02-21T01:54:51.708Z,0
2018-02-21T01:56:01.920Z,0
2018-02-21T01:57:12.133Z,0
2018-02-21T01:58:22.081Z,0
2018-02-21T01:59:32.044Z,0
2018-02-21T02:00:42.246Z,0
2018-02-21T02:01:52.105Z,0
2018-02-21T02:03:01.731Z,0
2018-02-21T02:04:11.967Z,0
2018-02-21T02:05:22.357Z,0
2018-02-21T02:06:32.546Z,0
2018-02-21T02:07:42.695Z,0
2018-02-21T02:08:52.583Z,0
2018-02-21T02:10:02.615Z,0
2018-02-21T02:11:12.469Z,0
2018-02-21T02:12:22.304Z,0
2018-02-21T02:13:32.418Z,0
2018-02-21T02:14:42.543Z,0
2018-02-21T02:15:52.658Z,0
2018-02-21T02:17:02.884Z,0
2018-02-21T02:18:13.038Z,0
2018-02-21T02:19:23.157Z,0
2018-02-21T02:20:32.928Z,0
2018-02-21T02:21:43.070Z,0
2018-02-21T02:22:52.997Z,0
2018-02-21T02:24:02.752Z,0
2018-02-21T02:25:12.876Z,0
2018-02-21T02:26:22.732Z,0
2018-02-21T02:27:32.971Z,0
2018-02-21T02:28:43.093Z,0
2018-02-21T02:29:53.238Z,0
2018-02-21T02:31:03.352Z,0
2018-02-21T02:32:13.110Z,0
2018-02-21T02:33:22.733Z,0
2018-02-21T02:34:32.349Z,0
2018-02-21T02:35:42.469Z,0
2018-02-21T02:36:52.625Z,0
2018-02-21T02:38:02.593Z,0
2018-02-21T02:39:12.783Z,0
2018-02-21T02:40:22.662Z,0
2018-02-21T02:41:32.818Z,0
2018-02-21T02:42:42.615Z,0
2018-02-21T02:43:52.736Z,0
2018-02-21T02:45:02.917Z,0
2018-02-21T02:46:12.797Z,0
2018-02-21T02:47:22.415Z,0
2018-02-21T02:48:32.309Z,0
2018-02-21T02:49:42.419Z,0
2018-02-21T02:50:52.556Z,0
2018-02-21T02:52:02.739Z,0
2018-02-21T02:53:12.664Z,0
2018-02-21T02:54:22.834Z,0
2018-02-21T02:55:32.993Z,0
2018-02-21T02:56:42.846Z,0
2018-02-21T02:57:52.445Z,0
2018-02-21T02:59:02.634Z,0
2018-02-21T03:00:12.802Z,0
2018-02-21T03:01:22.461Z,0
2018-02-21T03:02:32.345Z,0
2018-02-21T03:03:42.533Z,0
2018-02-21T03:04:52.456Z,0
2018-02-21T03:06:02.303Z,0
2018-02-21T03:07:12.316Z,0
2018-02-21T03:08:22.173Z,0
2018-02-21T03:09:32.305Z,0
2018-02-21T03:10:42.700Z,0
2018-02-21T03:11:52.821Z,0
2018-02-21T03:13:02.711Z,0
2018-02-21T03:14:12.828Z,0
2018-02-21T03:15:22.948Z,0
2018-02-21T03:16:32.807Z,0
2018-02-21T03:17:42.911Z,0
2018-02-21T03:18:53.061Z,0
2018-02-21T03:20:03.183Z,0
2018-02-21T03:21:13.320Z,0
2018-02-21T03:22:23.694Z,0
2018-02-21T03:23:33.900Z,0
2018-02-21T03:24:44.015Z,0
2018-02-21T03:25:53.937Z,0
2018-02-21T03:27:04.249Z,0
2018-02-21T03:28:14.457Z,0
2018-02-21T03:29:24.070Z,0
2018-02-21T03:30:34.287Z,0
2018-02-21T03:31:44.517Z,0
2018-02-21T03:32:54.680Z,0
2018-02-21T03:34:04.905Z,0
2018-02-21T03:35:15.118Z,0
2018-02-21T03:36:24.995Z,0
2018-02-21T03:37:35.205Z,0
2018-02-21T03:38:45.376Z,0
2018-02-21T03:39:55.348Z,0
2018-02-21T03:41:05.206Z,0
2018-02-21T03:42:15.056Z,0
2018-02-21T03:43:24.917Z,0
2018-02-21T03:44:35.045Z,0
2018-02-21T03:45:45.169Z,0
2018-02-21T03:46:55.032Z,0
2018-02-21T03:48:05.231Z,0
2018-02-21T03:49:15.164Z,0
2018-02-21T03:50:25.273Z,0
2018-02-21T03:51:35.131Z,0
2018-02-21T03:52:44.893Z,0
2018-02-21T03:53:55.031Z,0
2018-02-21T03:55:05.171Z,0
2018-02-21T03:56:15.408Z,0
2018-02-21T03:57:25.518Z,0
2018-02-21T03:58:35.671Z,0
2018-02-21T03:59:45.815Z,0
2018-02-21T04:00:55.926Z,0
2018-02-21T04:02:06.075Z,0
2018-02-21T04:03:16.180Z,0
2018-02-21T04:04:26.396Z,0
2018-02-21T04:05:36.572Z,0
2018-02-21T04:06:46.757Z,0
2018-02-21T04:07:57.093Z,0
2018-02-21T04:09:06.962Z,0
2018-02-21T04:10:16.568Z,0
2018-02-21T04:11:26.688Z,0
2018-02-21T04:12:36.858Z,0
2018-02-21T04:13:46.358Z,0
2018-02-21T04:14:56.488Z,0
2018-02-21T04:16:06.353Z,0
2018-02-21T04:17:16.472Z,0
2018-02-21T04:18:26.354Z,0
2018-02-21T04:19:36.465Z,0
2018-02-21T04:20:46.603Z,0
2018-02-21T04:21:56.227Z,0
2018-02-21T04:23:06.472Z,0
2018-02-21T04:24:16.378Z,0
2018-02-21T04:25:26.250Z,0
2018-02-21T04:26:36.351Z,0
2018-02-21T04:27:46.517Z,0
2018-02-21T04:28:56.265Z,0
2018-02-21T04:30:05.631Z,0
2018-02-21T04:31:15.508Z,0
2018-02-21T04:32:25.382Z,0
2018-02-21T04:33:35.591Z,0
2018-02-21T04:34:45.828Z,0
2018-02-21T04:35:55.703Z,0
2018-02-21T04:37:05.558Z,0
2018-02-21T04:38:15.657Z,0
2018-02-21T04:39:25.804Z,0
2018-02-21T04:40:35.937Z,0
2018-02-21T04:41:46.141Z,0
2018-02-21T04:42:55.988Z,0
2018-02-21T04:44:05.846Z,0
2018-02-21T04:45:15.979Z,0
2018-02-21T04:46:26.165Z,0
2018-02-21T04:47:36.298Z,0
2018-02-21T04:48:46.179Z,0
2018-02-21T04:49:56.196Z,0
2018-02-21T04:51:06.446Z,0
2018-02-21T04:52:16.108Z,0
2018-02-21T04:53:26.242Z,0
2018-02-21T04:54:36.135Z,0
2018-02-21T04:55:46.345Z,0
2018-02-21T04:56:55.685Z,0
2018-02-21T04:58:05.558Z,0
2018-02-21T04:59:15.681Z,0
2018-02-21T05:00:25.812Z,0
2018-02-21T05:01:36.098Z,0
2018-02-21T05:02:46.330Z,0
2018-02-21T05:03:56.183Z,0
2018-02-21T05:05:06.288Z,0
2018-02-21T05:06:16.445Z,0
2018-02-21T05:07:26.672Z,0
2018-02-21T05:08:36.801Z,0
2018-02-21T05:09:46.995Z,0
2018-02-21T05:10:56.860Z,0
2018-02-21T05:12:07.028Z,0
2018-02-21T05:13:16.966Z,0
2018-02-21T05:14:27.087Z,0
2018-02-21T05:15:37.290Z,0
2018-02-21T05:16:47.444Z,0
2018-02-21T05:17:57.674Z,0
2018-02-21T05:19:08.507Z,0
2018-02-21T05:20:18.647Z,0
2018-02-21T05:21:28.401Z,0
2018-02-21T05:22:38.310Z,0
2018-02-21T05:23:48.200Z,0
2018-02-21T05:24:58.348Z,0
2018-02-21T05:26:08.365Z,0
2018-02-21T05:27:18.216Z,0
2018-02-21T05:28:28.185Z,0
2018-02-21T05:29:38.324Z,0
2018-02-21T05:30:48.301Z,0
2018-02-21T05:31:58.159Z,0
2018-02-21T05:33:07.947Z,0
2018-02-21T05:34:17.825Z,0
2018-02-21T05:35:27.998Z,0
2018-02-21T05:36:38.363Z,0
2018-02-21T05:37:48.213Z,0
2018-02-21T05:38:58.348Z,0
2018-02-21T05:40:08.103Z,0
2018-02-21T05:41:18.270Z,0
2018-02-21T05:42:28.411Z,0
2018-02-21T05:43:38.209Z,4
2018-02-21T05:44:48.073Z,4
2018-02-21T05:45:57.993Z,0
2018-02-21T05:47:08.396Z,4
2018-02-21T05:48:18.557Z,4
2018-02-21T05:49:28.205Z,4
2018-02-21T05:50:38.416Z,4
2018-02-21T05:51:48.254Z,4
2018-02-21T05:52:59.379Z,8
2018-02-21T05:54:09.613Z,12
2018-02-21T05:55:19.895Z,12
2018-02-21T05:56:29.774Z,12
2018-02-21T05:57:39.940Z,16
2018-02-21T05:58:49.802Z,20
2018-02-21T05:59:59.580Z,24
2018-02-21T06:01:09.719Z,32
2018-02-21T06:02:19.906Z,40
2018-02-21T06:03:30.048Z,44
2018-02-21T06:04:40.291Z,52
2018-02-21T06:05:50.477Z,64
2018-02-21T06:07:00.107Z,76
2018-02-21T06:08:10.048Z,88
2018-02-21T06:09:19.938Z,100
2018-02-21T06:10:30.070Z,116
2018-02-21T06:11:39.678Z,136
2018-02-21T06:12:49.838Z,156
2018-02-21T06:13:59.736Z,176
2018-02-21T06:15:09.803Z,200
2018-02-21T06:16:19.928Z,224
2018-02-21T06:17:29.614Z,248
2018-02-21T06:18:39.580Z,280
2018-02-21T06:19:49.722Z,316
2018-02-21T06:20:59.955Z,352
2018-02-21T06:22:10.193Z,396
2018-02-21T06:23:20.420Z,440
2018-02-21T06:24:30.185Z,488
2018-02-21T06:25:40.357Z,540
2018-02-21T06:26:50.581Z,596
2018-02-21T06:28:00.813Z,656
2018-02-21T06:29:10.980Z,720
2018-02-21T06:30:21.194Z,788
2018-02-21T06:31:31.102Z,860
2018-02-21T06:32:41.261Z,936
2018-02-21T06:33:51.411Z,1020
2018-02-21T06:35:01.635Z,1100
2018-02-21T06:36:11.872Z,1180
2018-02-21T06:37:22.120Z,1268
2018-02-21T06:38:32.019Z,1348
2018-02-21T06:39:42.188Z,1432
2018-02-21T06:40:52.318Z,1516
2018-02-21T06:42:02.163Z,1604
2018-02-21T06:43:12.175Z,1696
2018-02-21T06:44:22.060Z,1792
2018-02-21T06:45:31.910Z,1880
2018-02-21T06:46:42.017Z,1976
2018-02-21T06:47:52.148Z,2068
2018-02-21T06:49:02.337Z,2156
2018-02-21T06:50:11.981Z,2240
2018-02-21T06:51:53.906Z,2356
2018-02-21T06:53:03.923Z,2436
2018-02-21T06:54:13.412Z,2512
2018-02-21T06:55:23.593Z,2584
2018-02-21T06:56:33.867Z,2660
2018-02-21T06:57:43.377Z,2728
2018-02-21T06:58:53.247Z,2804
2018-02-21T07:00:03.279Z,2892
2018-02-21T07:01:13.404Z,2980
2018-02-21T07:02:23.571Z,3068
2018-02-21T07:03:33.717Z,3164
2018-02-21T07:04:43.590Z,3260
2018-02-21T07:05:53.727Z,3344
2018-02-21T07:07:03.642Z,3412
2018-02-21T07:08:13.523Z,3436
2018-02-21T07:09:23.382Z,3408
2018-02-21T07:10:33.533Z,3412
2018-02-21T07:11:43.808Z,3464
2018-02-21T07:12:53.745Z,3612
2018-02-21T07:14:03.871Z,3900
2018-02-21T07:15:14.032Z,4124
2018-02-21T07:16:24.151Z,4236
2018-02-21T07:17:34.297Z,4320
2018-02-21T07:18:44.206Z,4412
2018-02-21T07:19:54.156Z,4500
2018-02-21T07:21:04.313Z,4580
2018-02-21T07:22:14.181Z,4724
2018-02-21T07:23:24.301Z,5108
2018-02-21T07:24:34.461Z,5752
2018-02-21T07:25:44.635Z,6216
2018-02-21T07:26:54.842Z,6468
2018-02-21T07:28:05.013Z,6328
2018-02-21T07:29:15.206Z,6788
2018-02-21T07:30:25.133Z,6856
2018-02-21T07:31:34.994Z,7160
2018-02-21T07:32:45.129Z,7372
2018-02-21T07:33:54.873Z,7220
2018-02-21T07:35:04.466Z,6840
2018-02-21T07:36:14.338Z,6872
2018-02-21T07:37:24.458Z,6584
2018-02-21T07:38:34.351Z,5852
2018-02-21T07:39:44.257Z,5580
2018-02-21T07:40:54.472Z,5848
2018-02-21T07:42:04.240Z,5772
2018-02-21T07:43:14.457Z,6344
2018-02-21T07:44:24.708Z,6372
2018-02-21T07:45:34.332Z,7908
2018-02-21T07:46:44.481Z,10400
2018-02-21T07:47:54.603Z,10472
2018-02-21T07:49:04.939Z,10384
2018-02-21T07:50:14.759Z,11076
2018-02-21T07:51:24.972Z,11344
2018-02-21T07:52:34.851Z,11344
2018-02-21T07:53:45.059Z,12160
2018-02-21T07:54:54.909Z,12864
2018-02-21T07:56:05.051Z,12992
2018-02-21T07:57:15.200Z,13120
2018-02-21T07:58:24.722Z,12544
2018-02-21T07:59:34.926Z,10616
2018-02-21T08:00:45.106Z,9792
2018-02-21T08:01:55.009Z,9672
2018-02-21T08:03:05.383Z,9604
2018-02-21T08:04:15.516Z,9444
2018-02-21T08:05:25.690Z,10568
2018-02-21T08:06:35.916Z,14048
2018-02-21T08:07:46.133Z,15872
2018-02-21T08:08:56.044Z,16832
2018-02-21T08:10:05.924Z,17440
2018-02-21T08:11:15.788Z,18304
2018-02-21T08:12:25.663Z,18848
2018-02-21T08:13:35.288Z,19072
2018-02-21T08:14:45.433Z,18976
2018-02-21T08:15:55.335Z,18720
2018-02-21T08:17:05.554Z,17088
2018-02-21T08:18:15.733Z,16864
2018-02-21T08:19:25.997Z,18656
2018-02-21T08:21:52.362Z,17632
2018-02-21T08:23:02.547Z,17344
2018-02-21T08:24:13.513Z,18208
2018-02-21T08:26:42.206Z,20032
2018-02-21T08:27:55.976Z,18240
2018-02-21T08:37:57.130Z,15872
2018-02-21T08:39:07.018Z,13216
2018-02-21T08:40:17.147Z,11776
2018-02-21T08:41:27.248Z,11732
2018-02-21T08:59:12.606Z,31392
2018-02-21T09:04:16.874Z,29056
2018-02-21T09:10:36.589Z,20352
2018-02-21T09:16:53.821Z,24448
2018-02-21T09:18:03.976Z,26720
2018-02-21T09:23:03.548Z,28992
2018-02-21T09:24:20.317Z,29120
2018-02-21T09:25:30.452Z,34656
2018-02-21T09:26:41.554Z,28928
2018-02-21T09:32:58.748Z,27360
2018-02-21T09:34:09.019Z,28384
2018-02-21T09:35:19.191Z,24992
2018-02-21T09:36:29.393Z,22688
2018-02-21T09:37:39.614Z,24800
2018-02-21T09:38:49.899Z,29664
2018-02-21T09:40:00.092Z,31712
2018-02-21T09:41:10.280Z,36256
2018-02-21T09:42:20.556Z,38368
2018-02-21T09:43:30.844Z,34976
2018-02-21T09:44:40.136Z,32224
2018-02-21T09:45:50.301Z,31008
2018-02-21T09:47:00.445Z,28160
2018-02-21T09:48:10.738Z,28896
2018-02-21T09:49:20.639Z,28416
2018-02-21T09:50:30.523Z,24544
2018-02-21T09:51:40.406Z,20352
2018-02-21T09:52:50.584Z,24192
2018-02-21T09:54:00.532Z,25632
2018-02-21T09:55:10.708Z,26368
2018-02-21T09:56:20.388Z,26784
2018-02-21T09:57:30.269Z,24352
2018-02-21T09:58:40.420Z,26592
2018-02-21T09:59:50.568Z,28000
2018-02-21T10:01:00.866Z,32160
2018-02-21T10:02:11.077Z,32160
2018-02-21T10:03:21.080Z,35552
2018-02-21T10:04:30.960Z,36288
2018-02-21T10:05:41.153Z,35872
2018-02-21T10:06:51.369Z,34304
2018-02-21T10:08:01.560Z,33152
2018-02-21T10:09:11.778Z,35392
2018-02-21T10:10:21.916Z,38656
2018-02-21T10:11:32.075Z,32864
2018-02-21T10:12:41.956Z,27488
2018-02-21T10:13:52.229Z,26656
2018-02-21T10:15:02.091Z,32192
2018-02-21T10:16:12.227Z,33856
2018-02-21T10:17:22.156Z,35328
2018-02-21T10:18:32.282Z,40192
2018-02-21T10:19:42.424Z,38272
2018-02-21T10:20:52.633Z,44512
2018-02-21T10:22:02.522Z,53152
2018-02-21T10:23:12.431Z,48128
2018-02-21T10:24:22.297Z,45536
2018-02-21T10:25:32.252Z,40224
2018-02-21T10:26:42.167Z,39104
2018-02-21T10:27:52.133Z,39360
2018-02-21T10:29:02.067Z,42880
2018-02-21T10:30:11.984Z,45696
2018-02-21T10:31:22.146Z,41440
2018-02-21T10:32:32.308Z,40288
2018-02-21T10:33:42.565Z,41632
2018-02-21T10:34:52.478Z,43392
2018-02-21T10:36:02.363Z,41088
2018-02-21T10:37:12.289Z,39584
2018-02-21T10:38:22.463Z,41856
2018-02-21T10:39:32.647Z,48928
2018-02-21T10:40:42.822Z,54080
2018-02-21T10:41:52.725Z,48576
2018-02-21T10:43:02.922Z,44224
2018-02-21T10:44:12.857Z,41184
2018-02-21T10:45:23.047Z,41440
2018-02-21T10:46:33.250Z,48096
2018-02-21T10:47:43.381Z,46016
2018-02-21T10:48:53.562Z,38816
2018-02-21T10:50:03.705Z,45056
2018-02-21T10:51:13.874Z,47360
2018-02-21T10:52:24.031Z,39840
2018-02-21T10:56:05.191Z,49696
2018-02-21T10:57:15.334Z,46432
2018-02-21T10:59:39.442Z,48288
2018-02-21T11:00:49.307Z,43136
2018-02-21T11:01:59.213Z,53344
2018-02-21T11:03:09.359Z,53408
2018-02-21T11:04:19.673Z,43904
2018-02-21T11:05:31.088Z,45632
2018-02-21T11:09:12.185Z,32928
2018-02-21T11:12:55.977Z,48832
2018-02-21T11:15:28.567Z,38400
2018-02-21T11:16:42.920Z,36480
2018-02-21T11:17:56.865Z,37376
2018-02-21T11:19:07.034Z,38880
2018-02-21T11:24:02.721Z,44960
2018-02-21T11:25:12.601Z,47168
2018-02-21T11:26:22.758Z,45568
2018-02-21T11:27:32.437Z,51584
2018-02-21T11:28:42.621Z,50080
2018-02-21T11:36:11.050Z,47424
2018-02-21T11:37:22.411Z,44320
2018-02-21T11:38:32.663Z,49504
2018-02-21T11:39:42.848Z,48960
2018-02-21T11:40:53.013Z,49184
2018-02-21T11:42:03.159Z,55424
2018-02-21T11:43:13.346Z,51968
2018-02-21T11:44:23.680Z,44480
2018-02-21T11:45:33.847Z,47648
2018-02-21T11:46:43.801Z,48480
2018-02-21T11:47:53.947Z,47648
2018-02-21T11:49:04.125Z,48512
2018-02-21T11:50:14.276Z,53664
2018-02-21T11:51:29.618Z,57152
2018-02-21T11:52:40.559Z,52256
2018-02-21T11:53:55.937Z,50208
2018-02-21T11:55:07.324Z,42560
2018-02-21T11:56:17.480Z,47264
2018-02-21T11:57:30.959Z,53248
2018-02-21T11:58:40.833Z,42880
2018-02-21T12:01:06.045Z,41824
2018-02-21T12:02:16.239Z,35328
2018-02-21T12:03:26.403Z,34912
2018-02-21T12:04:36.578Z,37184
2018-02-21T12:05:46.750Z,38016
2018-02-21T12:06:56.939Z,43872
2018-02-21T12:08:06.583Z,40672
2018-02-21T12:09:16.817Z,34592
2018-02-21T12:10:26.831Z,33408
2018-02-21T12:11:36.613Z,30144
2018-02-21T12:12:46.580Z,29760
2018-02-21T12:13:56.208Z,32576
2018-02-21T12:15:06.145Z,31264
2018-02-21T12:16:16.040Z,34240
2018-02-21T12:17:26.200Z,34816
2018-02-21T12:18:36.335Z,35296
2018-02-21T12:19:46.553Z,34464
2018-02-21T12:20:56.781Z,35584
2018-02-21T12:22:06.683Z,37952
2018-02-21T12:23:16.494Z,36928
2018-02-21T12:24:26.852Z,37504
2018-02-21T12:25:37.059Z,38528
2018-02-21T12:26:47.345Z,36608
2018-02-21T12:27:57.515Z,36704
2018-02-21T12:29:07.844Z,39040
2018-02-21T12:30:18.012Z,38368
2018-02-21T12:31:27.892Z,42144
2018-02-21T12:32:38.079Z,44288
2018-02-21T12:33:47.922Z,41856
2018-02-21T12:34:57.952Z,43776
2018-02-21T12:36:08.081Z,45632
2018-02-21T12:37:18.231Z,47040
2018-02-21T12:38:28.460Z,40352
2018-02-21T12:39:38.671Z,20512
2018-02-21T12:40:48.699Z,16736
2018-02-21T12:41:58.875Z,36096
2018-02-21T12:43:09.065Z,33728
2018-02-21T12:44:19.230Z,31328
2018-02-21T12:45:29.428Z,18528
2018-02-21T12:46:39.633Z,14912
2018-02-21T12:47:49.790Z,14148
2018-02-21T12:48:59.670Z,13676
2018-02-21T12:50:09.913Z,15680
2018-02-21T12:51:20.109Z,10736
2018-02-21T12:52:30.250Z,10564
2018-02-21T12:53:40.186Z,11252
2018-02-21T12:54:50.394Z,14880
2018-02-21T12:56:00.536Z,12256
2018-02-21T12:57:10.723Z,11708
2018-02-21T12:58:20.614Z,11864
2018-02-21T12:59:30.587Z,27040
2018-02-21T13:00:40.554Z,12116
2018-02-21T13:01:50.494Z,23008
2018-02-21T13:03:00.100Z,14784
2018-02-21T13:04:10.242Z,11260
2018-02-21T13:05:20.430Z,11604
2018-02-21T13:06:30.424Z,11804
2018-02-21T13:07:40.645Z,13920
2018-02-21T13:08:50.873Z,17152
2018-02-21T13:10:01.108Z,28576
2018-02-21T13:11:11.322Z,27744
2018-02-21T13:12:21.241Z,11984
2018-02-21T13:13:31.122Z,11484
2018-02-21T13:14:40.766Z,10928
2018-02-21T13:15:50.902Z,11472
2018-02-21T13:17:00.789Z,11612
2018-02-21T13:18:11.029Z,12392
2018-02-21T13:19:53.061Z,9076
2018-02-21T13:21:03.339Z,8644
2018-02-21T13:22:13.550Z,8940
2018-02-21T13:23:23.742Z,9196
2018-02-21T13:24:34.008Z,9136
2018-02-21T13:25:44.219Z,9208
2018-02-21T13:26:54.120Z,8732
2018-02-21T13:28:04.282Z,8304
2018-02-21T13:29:14.568Z,7704
2018-02-21T13:30:24.537Z,7052
2018-02-21T13:31:34.905Z,6328
2018-02-21T13:32:45.118Z,5444
2018-02-21T13:33:54.642Z,4648
2018-02-21T13:35:04.809Z,4156
2018-02-21T13:36:15.215Z,3816
2018-02-21T13:37:24.854Z,3612
2018-02-21T13:38:35.054Z,3404
2018-02-21T13:39:45.274Z,3260
2018-02-21T13:40:55.580Z,3240
2018-02-21T13:42:05.161Z,3464
2018-02-21T13:43:15.318Z,3860
2018-02-21T13:44:24.996Z,4388
2018-02-21T13:45:35.217Z,4808
2018-02-21T13:46:45.392Z,5160
2018-02-21T13:47:55.285Z,5592
2018-02-21T13:49:05.274Z,6180
2018-02-21T13:50:15.081Z,6520
2018-02-21T13:51:25.004Z,6368
2018-02-21T13:52:35.492Z,6296
2018-02-21T13:53:45.663Z,6268
2018-02-21T13:54:55.842Z,6316
2018-02-21T13:56:05.759Z,6160
2018-02-21T13:57:15.923Z,5680
2018-02-21T13:58:25.553Z,5620
2018-02-21T13:59:35.191Z,5720
2018-02-21T14:00:45.120Z,5944
2018-02-21T14:01:55.266Z,6032
2018-02-21T14:03:05.444Z,5900
2018-02-21T14:04:15.355Z,5604
2018-02-21T14:05:25.550Z,5216
2018-02-21T14:06:35.551Z,4780
2018-02-21T14:07:45.062Z,4500
2018-02-21T14:08:54.995Z,4420
2018-02-21T14:10:05.035Z,4512
2018-02-21T14:11:14.949Z,4676
2018-02-21T14:12:25.094Z,4832
2018-02-21T14:13:35.259Z,5248
2018-02-21T14:14:45.202Z,5920
2018-02-21T14:15:55.395Z,6860
2018-02-21T14:17:05.593Z,7384
2018-02-21T14:18:15.474Z,7612
2018-02-21T14:19:25.249Z,7488
2018-02-21T14:20:35.138Z,7392
2018-02-21T14:21:45.075Z,7300
2018-02-21T14:22:55.266Z,7208
2018-02-21T14:24:05.014Z,7088
2018-02-21T14:25:15.059Z,6748
2018-02-21T14:26:25.189Z,6472
2018-02-21T14:27:35.337Z,6276
2018-02-21T14:28:45.142Z,6244
2018-02-21T14:29:55.012Z,6524
2018-02-21T14:31:05.156Z,6668
2018-02-21T14:32:15.342Z,6712
2018-02-21T14:33:25.261Z,6524
2018-02-21T14:34:35.385Z,6232
2018-02-21T14:35:45.519Z,5972
2018-02-21T14:36:55.677Z,5836
2018-02-21T14:38:05.832Z,5640
2018-02-21T14:39:16.157Z,5364
2018-02-21T14:40:27.313Z,5116
2018-02-21T14:41:37.468Z,7428
2018-02-21T14:42:47.758Z,4356
2018-02-21T14:43:57.929Z,3800
2018-02-21T14:45:08.131Z,3508
2018-02-21T14:46:18.305Z,3312
2018-02-21T14:47:28.231Z,3176
2018-02-21T14:48:38.391Z,3100
2018-02-21T14:49:48.567Z,3100
2018-02-21T14:50:58.902Z,3108
2018-02-21T14:52:09.133Z,3152
2018-02-21T14:53:19.349Z,3376
2018-02-21T14:54:29.562Z,3600
2018-02-21T14:55:39.166Z,3700
2018-02-21T14:56:49.400Z,3692
2018-02-21T14:57:59.568Z,3672
2018-02-21T14:59:09.491Z,3552
2018-02-21T15:00:19.653Z,3308
2018-02-21T15:01:29.550Z,3108
2018-02-21T15:02:39.191Z,3032
2018-02-21T15:03:49.391Z,3036
2018-02-21T15:04:58.935Z,3532
2018-02-21T15:06:09.193Z,4088
2018-02-21T15:07:19.654Z,4276
2018-02-21T15:08:29.859Z,4440
2018-02-21T15:09:39.991Z,4480
2018-02-21T15:10:50.159Z,4316
2018-02-21T15:12:00.125Z,3928
2018-02-21T15:13:09.748Z,3740
2018-02-21T15:14:19.990Z,3588
2018-02-21T15:15:30.119Z,3504
2018-02-21T15:16:40.272Z,3476
2018-02-21T15:17:50.470Z,3440
2018-02-21T15:19:00.652Z,3384
2018-02-21T15:20:10.854Z,3356
2018-02-21T15:21:21.161Z,3308
2018-02-21T15:22:31.344Z,3256
2018-02-21T15:23:41.493Z,3092
2018-02-21T15:24:51.466Z,2968
2018-02-21T15:26:01.673Z,2724
2018-02-21T15:27:11.829Z,2556
2018-02-21T15:28:21.703Z,2420
2018-02-21T15:29:31.842Z,2256
2018-02-21T15:30:41.805Z,2068
2018-02-21T15:31:52.111Z,2008
2018-02-21T15:33:02.267Z,1908
2018-02-21T15:34:12.471Z,1732
2018-02-21T15:35:23.001Z,1568
2018-02-21T15:36:33.217Z,1468
2018-02-21T15:37:43.185Z,1376
2018-02-21T15:38:53.531Z,1312
2018-02-21T15:40:03.697Z,1312
2018-02-21T15:41:13.889Z,1376
2018-02-21T15:42:24.108Z,1448
2018-02-21T15:43:34.285Z,1504
2018-02-21T15:44:44.173Z,1604
2018-02-21T15:45:54.084Z,1696
2018-02-21T15:47:04.097Z,1692
2018-02-21T15:48:14.336Z,1728
2018-02-21T15:49:24.504Z,1652
2018-02-21T15:50:34.743Z,1520
2018-02-21T15:51:44.919Z,1356
2018-02-21T15:52:55.157Z,1204
2018-02-21T15:54:05.443Z,1136
2018-02-21T15:55:15.370Z,1140
2018-02-21T15:56:25.536Z,1188
2018-02-21T15:57:35.452Z,1208
2018-02-21T15:58:45.763Z,1196
2018-02-21T15:59:55.999Z,1148
2018-02-21T16:01:06.459Z,1096
2018-02-21T16:02:16.659Z,1056
2018-02-21T16:03:26.833Z,1020
2018-02-21T16:04:36.460Z,996
2018-02-21T16:05:46.648Z,956
2018-02-21T16:06:56.853Z,916
2018-02-21T16:08:07.041Z,908
2018-02-21T16:09:17.301Z,940
2018-02-21T16:10:27.256Z,960
2018-02-21T16:11:37.402Z,968
2018-02-21T16:12:47.589Z,948
2018-02-21T16:13:57.806Z,912
2018-02-21T16:15:07.952Z,876
2018-02-21T16:16:18.158Z,824
2018-02-21T16:17:28.100Z,764
2018-02-21T16:18:38.316Z,708
2018-02-21T16:19:48.696Z,660
2018-02-21T16:20:59.021Z,616
2018-02-21T16:22:09.244Z,580
2018-02-21T16:23:19.516Z,552
2018-02-21T16:24:29.754Z,524
2018-02-21T16:25:39.950Z,496
2018-02-21T16:26:50.151Z,464
2018-02-21T16:28:00.405Z,432
2018-02-21T16:29:10.616Z,404
2018-02-21T16:30:20.785Z,376
2018-02-21T16:31:30.465Z,344
2018-02-21T16:32:40.684Z,316
2018-02-21T16:33:50.921Z,292
2018-02-21T16:35:00.882Z,268
2018-02-21T16:36:11.033Z,244
2018-02-21T16:37:21.194Z,220
2018-02-21T16:38:31.438Z,200
2018-02-21T16:39:42.612Z,176
2018-02-21T16:40:52.412Z,160
2018-02-21T16:42:02.621Z,144
2018-02-21T16:43:12.850Z,128
2018-02-21T16:44:23.054Z,112
2018-02-21T16:45:32.940Z,100
2018-02-21T16:46:43.130Z,88
2018-02-21T16:47:53.327Z,76
2018-02-21T16:49:03.501Z,68
2018-02-21T16:50:13.708Z,56
2018-02-21T16:51:23.894Z,48
2018-02-21T16:52:34.158Z,40
2018-02-21T16:53:44.352Z,36
2018-02-21T16:54:54.531Z,28
2018-02-21T16:56:04.719Z,24
2018-02-21T16:57:14.885Z,16
2018-02-21T16:58:25.070Z,16
2018-02-21T16:59:35.237Z,12
2018-02-21T17:00:44.908Z,8
2018-02-21T17:01:54.806Z,8
2018-02-21T17:03:04.995Z,8
2018-02-21T17:04:15.219Z,8
2018-02-21T17:05:25.402Z,4
2018-02-21T17:06:35.684Z,4
2018-02-21T17:07:46.017Z,4
2018-02-21T17:08:56.212Z,4
2018-02-21T17:10:06.112Z,4
2018-02-21T17:11:15.811Z,4
2018-02-21T17:12:26.000Z,0
2018-02-21T17:13:36.194Z,4
2018-02-21T17:14:46.402Z,4
2018-02-21T17:15:56.610Z,4
2018-02-21T17:17:06.877Z,0
2018-02-21T17:18:16.784Z,0
2018-02-21T17:19:26.485Z,0